Terminal Aerodrome Forecast
Issued by NWS

Home | Current Version | Previous Version | Text Only | Print | Product List | Glossary On
Versions: 1 2 3 4 5 6 7 8 9 10 11 12 13 14 15 16 17 18 19 20 21 22 23 24 25 26 27 28 29 30
000
FTUS46 KLOX 010525
TAFBUR
TAF
KBUR 010525Z 0106/0206 18007KT 4SM BR OVC011
     FM010900 VRB03KT 3SM BR OVC007
     FM011800 15006KT 4SM HZ SKC
     FM012100 17010KT P6SM SKC
     FM020400 14007KT 5SM HZ SKC=

USA.gov is the U.S. government's official web portal to all federal, state and local government web resources and services.